Time;durP1;ratioP1;P1;durP2;ratioP2;P2;SDS_P1;SDS_P2;PMS_P1;PMS_P2;Temp;Humidity;BMP_temperature;BMP_pressure;BME280_temperature;BME280_humidity;BME280_pressure;Samples;Min_cycle;Max_cycle;Signal;HPM_P1;HPM_P2
2021/08/16 00:01:09;;;;;;;14.67;8.53;;;19.30;99.90;;;;;;5028308;28;20659;-62
2021/08/16 00:03:37;;;;;;;23.27;8.10;;;19.30;99.90;;;;;;5030622;28;20186;-60
2021/08/16 00:06:03;;;;;;;12.53;7.70;;;19.20;99.90;;;;;;5021974;28;20565;-60
2021/08/16 00:08:28;;;;;;;14.40;8.27;;;19.20;99.90;;;;;;5027848;28;20450;-61
2021/08/16 00:10:54;;;;;;;12.63;8.10;;;19.20;99.90;;;;;;5028778;28;20172;-60
2021/08/16 00:13:20;;;;;;;17.77;8.83;;;19.10;99.90;;;;;;5027057;28;20176;-60
2021/08/16 00:15:47;;;;;;;16.10;8.60;;;19.10;99.90;;;;;;5026801;28;20199;-59
2021/08/16 00:18:12;;;;;;;11.60;7.70;;;19.10;99.90;;;;;;5028541;28;20512;-60
2021/08/16 00:20:38;;;;;;;13.67;8.83;;;19.00;99.90;;;;;;5028964;28;20414;-60
2021/08/16 00:23:04;;;;;;;21.07;8.70;;;19.00;99.90;;;;;;5024338;28;20280;-63
2021/08/16 00:25:30;;;;;;;12.17;8.90;;;19.00;99.90;;;;;;5027795;28;20203;-60
2021/08/16 00:27:56;;;;;;;13.13;8.17;;;19.00;99.90;;;;;;5027106;28;20633;-60
2021/08/16 00:30:22;;;;;;;17.47;9.13;;;19.00;99.90;;;;;;5028667;28;20451;-60
2021/08/16 00:32:49;;;;;;;11.23;7.70;;;19.00;99.90;;;;;;5021733;28;20271;-60
2021/08/16 00:35:15;;;;;;;13.60;8.70;;;18.90;99.90;;;;;;5027205;28;20425;-59
2021/08/16 00:37:40;;;;;;;15.47;8.40;;;19.00;99.90;;;;;;5027495;28;20450;-59
2021/08/16 00:40:07;;;;;;;12.57;8.70;;;18.90;99.90;;;;;;5029017;28;20673;-59
2021/08/16 00:42:33;;;;;;;16.33;8.30;;;18.90;99.90;;;;;;5028347;28;20207;-60
2021/08/16 00:44:59;;;;;;;18.57;8.57;;;18.90;99.90;;;;;;5027876;28;20570;-60
2021/08/16 00:47:25;;;;;;;12.03;8.80;;;18.90;99.90;;;;;;5026462;28;20978;-60
2021/08/16 00:49:50;;;;;;;20.30;9.27;;;18.90;99.90;;;;;;5027283;28;20230;-62
2021/08/16 00:52:16;;;;;;;15.13;8.97;;;18.90;99.90;;;;;;5026639;28;20233;-59
2021/08/16 00:54:45;;;;;;;11.93;8.43;;;18.80;99.90;;;;;;5028283;28;20179;-59
2021/08/16 00:57:11;;;;;;;21.80;9.43;;;18.80;99.90;;;;;;5026175;28;20450;-60
2021/08/16 00:59:36;;;;;;;14.33;8.93;;;18.80;99.90;;;;;;5026051;28;20445;-61
2021/08/16 01:02:02;;;;;;;11.17;8.20;;;18.80;99.90;;;;;;5027350;28;20263;-61
2021/08/16 01:04:32;;;;;;;14.67;7.67;;;18.70;99.90;;;;;;5027032;28;20179;-60
2021/08/16 01:06:57;;;;;;;21.57;8.20;;;18.70;99.90;;;;;;5024805;28;20200;-60
2021/08/16 01:09:23;;;;;;;11.13;8.00;;;18.70;99.90;;;;;;5028599;28;20484;-60
2021/08/16 01:11:50;;;;;;;16.00;8.50;;;18.60;99.90;;;;;;5024834;28;20176;-62
2021/08/16 01:14:16;;;;;;;11.53;7.70;;;18.60;99.90;;;;;;5029960;28;20179;-60
2021/08/16 01:16:42;;;;;;;12.23;8.57;;;18.50;99.90;;;;;;5025791;28;20456;-60
2021/08/16 01:19:07;;;;;;;17.83;9.13;;;18.50;99.90;;;;;;5029857;28;20431;-60
2021/08/16 01:21:33;;;;;;;17.13;9.33;;;18.50;99.90;;;;;;5027714;28;20648;-60
2021/08/16 01:23:59;;;;;;;13.80;8.37;;;18.40;99.90;;;;;;5026926;28;20835;-61
2021/08/16 01:26:26;;;;;;;13.60;8.97;;;18.40;99.90;;;;;;5027557;28;20227;-60
2021/08/16 01:28:51;;;;;;;16.03;9.47;;;18.40;99.90;;;;;;5026899;28;20176;-59
2021/08/16 01:31:18;;;;;;;14.90;9.30;;;18.40;99.90;;;;;;5027528;28;20441;-61
2021/08/16 01:33:43;;;;;;;14.80;8.73;;;18.30;99.90;;;;;;5026025;28;20179;-62
2021/08/16 01:36:09;;;;;;;15.73;8.30;;;18.30;99.90;;;;;;5027239;28;20434;-61
2021/08/16 01:38:39;;;;;;;20.93;9.53;;;18.30;99.90;;;;;;5026904;28;20207;-60
2021/08/16 01:41:05;;;;;;;16.03;8.93;;;18.30;99.90;;;;;;5028370;28;20262;-60
2021/08/16 01:43:30;;;;;;;22.03;9.67;;;18.20;99.90;;;;;;5025288;28;20444;-61
2021/08/16 01:45:56;;;;;;;16.57;9.70;;;18.20;99.90;;;;;;5026144;28;20463;-60
2021/08/16 01:48:22;;;;;;;13.63;9.20;;;18.20;99.90;;;;;;5026655;28;20199;-61
2021/08/16 01:50:48;;;;;;;12.93;9.80;;;18.20;99.90;;;;;;5023189;28;20206;-60
2021/08/16 01:53:14;;;;;;;18.40;8.97;;;18.20;99.90;;;;;;5026854;28;20183;-60
2021/08/16 01:55:40;;;;;;;14.33;10.33;;;18.20;99.90;;;;;;5029138;28;20804;-61
2021/08/16 01:58:07;;;;;;;17.70;9.60;;;18.20;99.90;;;;;;5026139;28;20501;-59
2021/08/16 02:00:33;;;;;;;14.40;9.10;;;18.20;99.90;;;;;;5026376;28;20422;-61
2021/08/16 02:02:59;;;;;;;14.40;8.77;;;18.20;99.90;;;;;;5028220;28;20495;-61
2021/08/16 02:05:25;;;;;;;16.90;9.37;;;18.20;99.90;;;;;;5025080;28;20221;-63
2021/08/16 02:07:50;;;;;;;14.27;9.37;;;18.20;99.90;;;;;;5029461;28;20216;-60
2021/08/16 02:10:16;;;;;;;15.73;9.50;;;18.10;99.90;;;;;;5026743;28;20262;-60
2021/08/16 02:12:42;;;;;;;13.47;9.90;;;18.10;99.90;;;;;;5028379;28;20176;-60
2021/08/16 02:15:10;;;;;;;19.07;9.57;;;18.10;99.90;;;;;;5029144;28;20275;-59
2021/08/16 02:17:35;;;;;;;15.30;8.40;;;18.10;99.90;;;;;;5029111;28;20200;-60
2021/08/16 02:20:04;;;;;;;14.87;9.60;;;18.00;99.90;;;;;;5025270;28;20500;-60
2021/08/16 02:22:29;;;;;;;10.80;8.47;;;18.00;99.90;;;;;;5024662;28;20183;-61
2021/08/16 02:24:55;;;;;;;17.90;11.63;;;18.00;99.90;;;;;;5028806;28;20516;-61
2021/08/16 02:27:20;;;;;;;14.33;10.73;;;18.00;99.90;;;;;;5029088;28;20266;-60
2021/08/16 02:29:46;;;;;;;29.33;16.07;;;18.00;99.90;;;;;;5025509;28;20267;-62
2021/08/16 02:32:12;;;;;;;119.80;54.47;;;17.90;99.90;;;;;;5027334;28;20769;-60
2021/08/16 02:34:37;;;;;;;76.70;39.63;;;17.90;99.90;;;;;;5024676;28;20235;-59
2021/08/16 02:37:03;;;;;;;22.77;12.50;;;17.90;99.90;;;;;;5027547;28;20755;-60
2021/08/16 02:39:29;;;;;;;22.00;11.30;;;17.90;99.90;;;;;;5028850;28;20225;-60
2021/08/16 02:41:55;;;;;;;18.73;11.60;;;17.90;99.90;;;;;;5031501;28;20430;-62
2021/08/16 02:44:21;;;;;;;15.70;10.93;;;17.90;99.90;;;;;;5026643;28;20254;-59
2021/08/16 02:46:46;;;;;;;24.17;13.17;;;17.80;99.90;;;;;;5027927;28;20298;-59
2021/08/16 02:49:12;;;;;;;28.17;15.47;;;17.80;99.90;;;;;;5028719;28;20210;-60
2021/08/16 02:51:37;;;;;;;31.33;18.20;;;17.80;99.90;;;;;;5030571;28;20203;-60
2021/08/16 02:54:03;;;;;;;23.20;15.20;;;17.80;99.90;;;;;;5032601;28;20179;-60
2021/08/16 02:56:29;;;;;;;15.77;10.00;;;17.80;99.90;;;;;;5027628;28;20239;-59
2021/08/16 02:58:54;;;;;;;18.40;10.87;;;17.80;99.90;;;;;;5030738;28;20266;-60
2021/08/16 03:01:20;;;;;;;13.33;9.43;;;17.70;99.90;;;;;;5027572;28;20270;-60
2021/08/16 03:03:46;;;;;;;13.53;9.07;;;17.70;99.90;;;;;;5046963;28;20183;-61
2021/08/16 03:06:12;;;;;;;12.60;8.87;;;17.70;99.90;;;;;;5030793;28;20210;-60
2021/08/16 03:08:38;;;;;;;13.37;9.13;;;17.70;99.90;;;;;;5030136;28;20191;-60
2021/08/16 03:11:04;;;;;;;14.03;8.90;;;17.70;99.90;;;;;;5031675;28;20168;-60
2021/08/16 03:13:30;;;;;;;18.67;8.80;;;17.60;99.90;;;;;;5029989;28;20548;-61
2021/08/16 03:15:56;;;;;;;25.33;10.40;;;17.60;99.90;;;;;;5033170;28;20525;-60
2021/08/16 03:18:21;;;;;;;30.97;10.80;;;17.60;99.90;;;;;;5031631;28;20263;-60
2021/08/16 03:20:47;;;;;;;11.13;9.53;;;17.50;99.90;;;;;;5030870;28;20203;-60
2021/08/16 03:23:13;;;;;;;14.60;10.30;;;17.50;99.90;;;;;;5029933;28;20179;-60
2021/08/16 03:25:38;;;;;;;13.90;10.33;;;17.50;99.90;;;;;;5031029;28;20196;-60
2021/08/16 03:28:04;;;;;;;17.13;10.03;;;17.50;99.90;;;;;;5032409;28;20210;-60
2021/08/16 03:30:30;;;;;;;15.30;9.47;;;17.50;99.90;;;;;;5028405;28;20278;-61
2021/08/16 03:32:56;;;;;;;15.00;9.80;;;17.50;99.90;;;;;;5031518;28;20529;-60
2021/08/16 03:35:21;;;;;;;14.00;9.03;;;17.50;99.90;;;;;;5032302;28;20581;-60
2021/08/16 03:37:47;;;;;;;12.23;10.00;;;17.50;99.90;;;;;;5031643;28;20678;-61
2021/08/16 03:40:14;;;;;;;19.63;10.30;;;17.50;99.90;;;;;;5032766;28;20219;-61
2021/08/16 03:42:39;;;;;;;13.60;9.37;;;17.50;99.90;;;;;;5029872;28;20652;-62
2021/08/16 03:45:13;;;;;;;16.00;10.20;;;17.40;99.90;;;;;;5029798;28;20454;-61
2021/08/16 03:47:39;;;;;;;16.17;9.13;;;17.40;99.90;;;;;;5029292;28;20834;-61
2021/08/16 03:50:08;;;;;;;17.00;10.27;;;17.40;99.90;;;;;;5032282;28;20468;-60
2021/08/16 03:52:34;;;;;;;16.30;9.20;;;17.50;99.90;;;;;;5031310;28;20176;-61
2021/08/16 03:55:00;;;;;;;12.43;9.60;;;17.50;99.90;;;;;;5032061;28;21141;-60
2021/08/16 03:57:26;;;;;;;12.80;10.50;;;17.50;99.90;;;;;;5030128;28;20199;-62
2021/08/16 03:59:51;;;;;;;15.83;10.43;;;17.50;99.90;;;;;;5031504;28;20266;-60
2021/08/16 04:02:17;;;;;;;12.33;9.77;;;17.40;99.90;;;;;;5028339;28;20197;-60
2021/08/16 04:04:43;;;;;;;14.93;10.03;;;17.40;99.90;;;;;;5029889;28;20184;-61
2021/08/16 04:07:09;;;;;;;11.70;9.60;;;17.40;99.90;;;;;;5028834;28;20230;-60
2021/08/16 04:09:34;;;;;;;13.73;10.10;;;17.40;99.90;;;;;;5030601;28;20492;-61
2021/08/16 04:12:00;;;;;;;15.77;9.00;;;17.40;99.90;;;;;;5031471;28;20848;-60
2021/08/16 04:14:26;;;;;;;12.60;9.53;;;17.40;99.90;;;;;;5032594;28;20834;-60
2021/08/16 04:16:51;;;;;;;13.97;9.67;;;17.40;99.90;;;;;;5030835;28;20857;-60
2021/08/16 04:19:17;;;;;;;12.70;9.83;;;17.40;99.90;;;;;;5030117;28;20226;-62
2021/08/16 04:21:43;;;;;;;18.33;10.50;;;17.50;99.90;;;;;;5030017;28;20184;-60
2021/08/16 04:24:09;;;;;;;24.10;11.53;;;17.50;99.90;;;;;;5032193;28;20265;-61
2021/08/16 04:26:35;;;;;;;16.90;9.70;;;17.40;99.90;;;;;;5031466;28;21001;-59
2021/08/16 04:29:00;;;;;;;21.23;10.60;;;17.40;99.90;;;;;;5029704;28;20718;-61
2021/08/16 04:31:26;;;;;;;19.13;10.80;;;17.40;99.90;;;;;;5029113;28;20238;-60
2021/08/16 04:33:51;;;;;;;56.83;11.43;;;17.40;99.90;;;;;;5030590;28;20226;-61
2021/08/16 04:36:17;;;;;;;13.93;10.63;;;17.40;99.90;;;;;;5031354;28;20209;-62
2021/08/16 04:38:43;;;;;;;15.37;10.43;;;17.40;99.90;;;;;;5029740;28;20240;-59
2021/08/16 04:41:08;;;;;;;21.63;10.73;;;17.40;99.90;;;;;;5031010;28;20180;-60
2021/08/16 04:43:34;;;;;;;14.40;9.83;;;17.40;99.90;;;;;;5025874;28;20267;-61
2021/08/16 04:46:00;;;;;;;16.67;11.17;;;17.40;99.90;;;;;;5019629;28;20221;-59
2021/08/16 04:48:25;;;;;;;15.07;10.37;;;17.40;99.90;;;;;;5025522;28;20234;-59
2021/08/16 04:50:51;;;;;;;15.77;10.10;;;17.40;99.90;;;;;;5028225;28;20179;-60
2021/08/16 04:53:17;;;;;;;16.20;10.37;;;17.50;99.90;;;;;;5025468;28;20184;-59
2021/08/16 04:55:43;;;;;;;20.00;11.30;;;17.40;99.90;;;;;;5020750;28;20179;-60
2021/08/16 04:58:09;;;;;;;18.87;9.20;;;17.40;99.90;;;;;;5024659;28;20451;-61
2021/08/16 05:00:35;;;;;;;12.80;9.70;;;17.50;99.90;;;;;;5024334;28;20176;-59
2021/08/16 05:03:02;;;;;;;15.63;10.30;;;17.50;99.90;;;;;;5021369;28;20597;-60
2021/08/16 05:05:30;;;;;;;19.27;10.27;;;17.50;99.90;;;;;;5027721;28;20184;-59
2021/08/16 05:07:57;;;;;;;21.93;10.57;;;17.60;99.90;;;;;;5024856;28;20462;-62
2021/08/16 05:10:24;;;;;;;15.37;10.50;;;17.60;99.90;;;;;;5027028;28;20431;-61
2021/08/16 05:12:51;;;;;;;12.50;9.80;;;17.60;99.90;;;;;;5012242;28;20434;-61
2021/08/16 05:15:19;;;;;;;21.70;9.63;;;17.70;99.90;;;;;;5017505;28;20446;-63
2021/08/16 05:17:47;;;;;;;15.10;10.10;;;17.80;99.90;;;;;;5024818;28;20449;-62
2021/08/16 05:20:14;;;;;;;15.30;9.07;;;17.80;99.90;;;;;;5026566;28;20461;-63
2021/08/16 05:22:43;;;;;;;12.30;9.50;;;17.90;99.90;;;;;;5024427;28;20471;-64
2021/08/16 05:25:10;;;;;;;18.40;9.50;;;17.90;99.90;;;;;;5016082;28;20550;-62
2021/08/16 05:27:36;;;;;;;15.40;9.93;;;17.90;99.90;;;;;;5018999;28;20447;-62
2021/08/16 05:30:02;;;;;;;11.67;9.00;;;17.90;99.90;;;;;;5020770;28;20441;-62
2021/08/16 05:32:28;;;;;;;17.10;9.67;;;17.90;99.90;;;;;;5017584;28;20195;-64
2021/08/16 05:34:54;;;;;;;14.97;10.30;;;17.80;99.90;;;;;;5018965;28;20939;-62
2021/08/16 05:37:19;;;;;;;10.87;8.80;;;17.80;99.90;;;;;;5021801;28;20198;-64
2021/08/16 05:39:45;;;;;;;12.73;9.53;;;17.70;99.90;;;;;;5019485;28;20176;-63
2021/08/16 05:42:14;;;;;;;15.03;9.63;;;17.70;99.90;;;;;;5016041;28;20241;-62
2021/08/16 05:44:39;;;;;;;11.13;8.93;;;17.70;99.90;;;;;;5019551;28;20295;-63
2021/08/16 05:47:05;;;;;;;17.13;9.60;;;17.80;99.90;;;;;;5021096;28;20676;-60
2021/08/16 05:49:31;;;;;;;18.07;9.27;;;17.90;99.90;;;;;;5024047;28;20569;-59
2021/08/16 05:51:57;;;;;;;12.73;9.37;;;17.90;99.90;;;;;;5021203;28;20501;-60
2021/08/16 05:54:23;;;;;;;13.57;8.83;;;18.00;99.90;;;;;;5020559;28;20187;-59
2021/08/16 05:56:48;;;;;;;13.70;9.47;;;18.10;99.90;;;;;;5024519;28;20278;-60
2021/08/16 05:59:14;;;;;;;19.43;8.40;;;18.10;99.90;;;;;;5023276;28;20208;-60
2021/08/16 06:01:40;;;;;;;10.57;7.97;;;18.20;99.90;;;;;;5018838;28;20212;-60
2021/08/16 06:40:20;;;;;;;10.43;7.37;;;19.70;99.90;;;;;;5021223;22;20865;-60
2021/08/16 06:42:46;;;;;;;9.43;6.60;;;19.70;99.90;;;;;;5015766;28;20430;-66
2021/08/16 06:45:14;;;;;;;15.90;8.00;;;19.80;99.90;;;;;;5020940;28;20196;-64
2021/08/16 06:47:40;;;;;;;12.33;7.00;;;19.80;99.90;;;;;;5026482;28;20337;-59
2021/08/16 06:50:06;;;;;;;10.90;7.30;;;19.90;99.90;;;;;;5008434;28;21001;-59
2021/08/16 06:52:32;;;;;;;10.07;7.13;;;19.90;99.90;;;;;;4999962;28;20713;-62
2021/08/16 06:54:58;;;;;;;11.00;6.87;;;20.00;99.90;;;;;;5003006;28;20845;-60
2021/08/16 06:57:27;;;;;;;10.63;7.10;;;20.10;99.90;;;;;;5005039;28;20939;-58
2021/08/16 06:59:53;;;;;;;10.47;7.37;;;20.10;99.90;;;;;;4997210;28;20211;-62
2021/08/16 07:02:19;;;;;;;15.40;8.10;;;20.10;99.90;;;;;;5002584;28;21124;-60
2021/08/16 07:04:44;;;;;;;11.23;6.80;;;20.20;99.90;;;;;;4996915;28;20450;-61
2021/08/16 07:07:10;;;;;;;12.47;7.30;;;20.30;99.90;;;;;;5000945;28;20216;-60
2021/08/16 07:09:35;;;;;;;12.10;7.00;;;20.50;99.90;;;;;;5015665;28;20276;-60
2021/08/16 07:12:01;;;;;;;11.10;6.83;;;20.70;99.90;;;;;;4998731;28;20184;-60
2021/08/16 07:14:27;;;;;;;13.53;7.30;;;20.80;99.90;;;;;;4996364;28;20188;-59
2021/08/16 07:16:53;;;;;;;12.03;8.03;;;20.90;99.90;;;;;;5000352;28;20291;-59
2021/08/16 07:19:18;;;;;;;9.93;7.20;;;20.90;99.90;;;;;;5000127;28;20246;-60
2021/08/16 07:21:46;;;;;;;10.90;6.67;;;20.90;99.90;;;;;;5003176;28;20198;-59
2021/08/16 07:24:12;;;;;;;10.90;7.10;;;20.90;99.90;;;;;;5006203;28;20164;-59
2021/08/16 07:26:37;;;;;;;17.53;7.73;;;20.90;99.90;;;;;;5008586;28;20454;-59
2021/08/16 07:29:03;;;;;;;13.53;7.47;;;20.80;99.90;;;;;;5009869;28;20435;-60
2021/08/16 07:31:29;;;;;;;14.20;7.20;;;20.70;99.90;;;;;;5009602;28;20692;-59
2021/08/16 07:33:54;;;;;;;12.80;7.03;;;20.50;99.90;;;;;;5005147;28;20235;-60
2021/08/16 07:36:20;;;;;;;20.10;6.30;;;20.40;99.90;;;;;;5011617;28;20696;-60
2021/08/16 07:38:46;;;;;;;10.83;7.10;;;20.30;99.90;;;;;;5003618;28;20204;-60
2021/08/16 07:41:11;;;;;;;12.90;6.30;;;20.20;99.90;;;;;;5003950;28;20222;-60
2021/08/16 07:43:37;;;;;;;10.30;6.87;;;20.10;99.90;;;;;;5005442;28;20173;-61
2021/08/16 07:46:03;;;;;;;8.87;6.40;;;20.10;99.90;;;;;;5009003;28;20200;-60
2021/08/16 07:48:29;;;;;;;12.67;6.40;;;20.00;99.90;;;;;;5005839;28;20197;-61
2021/08/16 07:50:54;;;;;;;13.93;6.20;;;19.90;99.90;;;;;;5004740;28;20432;-60
2021/08/16 07:53:20;;;;;;;14.90;6.40;;;19.90;99.90;;;;;;4998538;28;20208;-62
2021/08/16 07:55:46;;;;;;;8.23;6.13;;;19.80;99.90;;;;;;5001469;28;20185;-59
2021/08/16 07:58:11;;;;;;;10.90;5.80;;;19.70;99.90;;;;;;4997896;28;20172;-60
2021/08/16 08:00:37;;;;;;;11.10;6.70;;;19.70;99.90;;;;;;4998922;28;20665;-61
2021/08/16 08:03:05;;;;;;;16.27;6.67;;;19.70;99.90;;;;;;4998803;28;20196;-61
2021/08/16 08:05:30;;;;;;;9.93;5.80;;;19.60;99.90;;;;;;5003127;28;20180;-60
2021/08/16 08:07:56;;;;;;;8.13;5.07;;;19.50;99.90;;;;;;5007842;28;20484;-61
2021/08/16 08:10:22;;;;;;;10.27;5.93;;;19.50;99.90;;;;;;5025140;28;20735;-61
2021/08/16 08:12:49;;;;;;;11.37;5.17;;;19.40;99.90;;;;;;5000878;28;20279;-61
2021/08/16 08:15:15;;;;;;;8.10;5.13;;;19.40;99.90;;;;;;5009054;28;20517;-61
2021/08/16 08:17:41;;;;;;;10.57;4.50;;;19.30;99.90;;;;;;5000719;28;20431;-62
2021/08/16 08:20:09;;;;;;;7.00;4.93;;;19.30;99.90;;;;;;4999697;28;20455;-61
2021/08/16 08:22:35;;;;;;;12.43;6.13;;;19.30;99.90;;;;;;5002169;28;20659;-61
2021/08/16 08:25:01;;;;;;;9.63;5.50;;;19.30;99.90;;;;;;5000394;28;20829;-62
2021/08/16 08:27:27;;;;;;;8.07;5.50;;;19.40;99.90;;;;;;5001947;28;20967;-63
2021/08/16 08:29:53;;;;;;;6.73;4.90;;;19.40;99.90;;;;;;4997542;28;20459;-67
2021/08/16 08:32:18;;;;;;;7.07;4.60;;;19.50;99.90;;;;;;4992848;28;20188;-62
2021/08/16 08:34:44;;;;;;;7.80;4.93;;;19.50;99.90;;;;;;4995101;28;20637;-60
2021/08/16 08:37:11;;;;;;;6.43;5.00;;;19.60;99.90;;;;;;4999571;28;20682;-61
2021/08/16 08:39:46;;;;;;;7.10;4.50;;;19.70;99.90;;;;;;5006191;28;20210;-61
2021/08/16 08:42:13;;;;;;;11.97;5.40;;;19.80;99.90;;;;;;5011008;28;20434;-60
2021/08/16 08:44:42;;;;;;;5.80;4.60;;;19.90;99.90;;;;;;4997987;28;20419;-61
2021/08/16 08:47:08;;;;;;;15.97;5.10;;;20.00;99.90;;;;;;5007056;28;20462;-60
2021/08/16 08:49:35;;;;;;;6.57;4.43;;;20.00;99.90;;;;;;5010134;28;20443;-60
2021/08/16 08:52:01;;;;;;;7.80;5.27;;;20.10;99.90;;;;;;5004814;28;20791;-60
2021/08/16 08:54:27;;;;;;;13.00;5.37;;;20.30;99.90;;;;;;5003952;28;20432;-60
2021/08/16 08:56:53;;;;;;;7.50;5.17;;;20.40;99.90;;;;;;5002664;28;20446;-60
2021/08/16 08:59:19;;;;;;;6.37;4.90;;;20.50;99.90;;;;;;5007880;28;20455;-60
2021/08/16 09:01:53;;;;;;;10.63;4.60;;;20.60;99.80;;;;;;5009293;28;20439;-61
2021/08/16 09:04:19;;;;;;;7.63;5.03;;;20.60;99.40;;;;;;5000891;28;20200;-60
2021/08/16 09:06:45;;;;;;;7.87;4.23;;;20.60;99.90;;;;;;4996056;28;20485;-60
2021/08/16 09:09:11;;;;;;;7.33;4.87;;;20.60;99.90;;;;;;4996636;28;20452;-63
2021/08/16 09:11:37;;;;;;;7.20;4.57;;;20.50;99.80;;;;;;4996835;28;20413;-61
2021/08/16 09:14:04;;;;;;;7.20;4.70;;;20.40;99.40;;;;;;4999655;28;20454;-60
2021/08/16 09:16:33;;;;;;;7.20;4.30;;;20.30;97.50;;;;;;5000342;28;20240;-60
2021/08/16 09:18:59;;;;;;;8.87;4.67;;;20.30;96.90;;;;;;5002600;28;21020;-60
2021/08/16 09:21:33;;;;;;;9.97;4.70;;;20.30;97.50;;;;;;4997992;28;20980;-60
2021/08/16 09:24:00;;;;;;;6.30;4.47;;;20.30;98.30;;;;;;5000876;28;20573;-60
2021/08/16 09:26:28;;;;;;;7.63;4.50;;;20.30;98.00;;;;;;4999068;28;20824;-60
2021/08/16 09:28:54;;;;;;;6.00;4.60;;;20.40;98.00;;;;;;5002467;28;20474;-60
2021/08/16 09:31:23;;;;;;;10.40;4.90;;;20.50;98.10;;;;;;4998543;28;20478;-60
2021/08/16 09:34:02;;;;;;;6.53;4.27;;;20.60;97.90;;;;;;5002573;28;20439;-60
2021/08/16 09:36:38;;;;;;;4.53;3.80;;;20.60;96.70;;;;;;4994013;28;20463;-60
2021/08/16 09:39:16;;;;;;;10.47;4.43;;;20.60;96.10;;;;;;5001816;28;20458;-61
2021/08/16 09:41:42;;;;;;;6.10;4.33;;;20.60;96.10;;;;;;5003114;28;20440;-60
2021/08/16 09:44:12;;;;;;;6.80;4.80;;;20.60;97.00;;;;;;4998213;28;20440;-60
2021/08/16 09:46:39;;;;;;;6.43;4.37;;;20.80;96.80;;;;;;4997703;28;20205;-60
2021/08/16 09:49:07;;;;;;;6.17;4.07;;;21.10;95.80;;;;;;5008774;28;20493;-60
2021/08/16 09:51:34;;;;;;;12.40;4.80;;;21.20;94.90;;;;;;5004386;28;20416;-59
2021/08/16 09:54:01;;;;;;;7.00;4.67;;;21.30;92.60;;;;;;5004411;28;20454;-63
2021/08/16 09:56:27;;;;;;;8.57;4.03;;;21.40;92.20;;;;;;4995982;28;20432;-60
2021/08/16 09:58:53;;;;;;;7.13;3.77;;;21.50;92.20;;;;;;4998205;28;20460;-60
2021/08/16 10:01:19;;;;;;;4.00;3.30;;;21.50;91.10;;;;;;4997367;28;20435;-60
2021/08/16 10:03:46;;;;;;;3.77;3.27;;;21.40;88.50;;;;;;4996472;28;20931;-60
2021/08/16 10:06:19;;;;;;;5.13;3.20;;;21.40;90.40;;;;;;4998460;28;20459;-59
2021/08/16 10:08:55;;;;;;;5.23;3.40;;;21.40;88.00;;;;;;5004391;28;20455;-58
2021/08/16 10:11:22;;;;;;;6.43;3.83;;;21.30;84.50;;;;;;5003632;28;20438;-58
2021/08/16 10:13:56;;;;;;;5.10;3.20;;;21.20;89.50;;;;;;5000012;28;20446;-58
2021/08/16 10:16:32;;;;;;;8.33;3.93;;;21.20;88.70;;;;;;5006297;28;20847;-58
2021/08/16 10:19:02;;;;;;;4.90;3.70;;;21.10;89.90;;;;;;5005376;28;20458;-58
2021/08/16 10:21:28;;;;;;;7.83;3.90;;;21.00;90.50;;;;;;5001092;28;20510;-59
2021/08/16 10:23:55;;;;;;;7.43;4.47;;;20.90;88.50;;;;;;5002426;28;20455;-60
2021/08/16 10:26:34;;;;;;;4.40;3.50;;;20.90;91.00;;;;;;4996674;28;20471;-60
2021/08/16 10:29:06;;;;;;;4.93;4.20;;;20.80;93.00;;;;;;4998646;28;20447;-58
2021/08/16 10:31:42;;;;;;;4.47;3.70;;;20.70;94.10;;;;;;5001989;28;20509;-58
2021/08/16 10:34:07;;;;;;;6.90;3.90;;;20.80;95.40;;;;;;5001205;28;20466;-59
2021/08/16 10:36:33;;;;;;;10.20;4.47;;;20.80;96.20;;;;;;5003818;28;20564;-60
2021/08/16 10:39:01;;;;;;;8.20;3.70;;;20.70;96.30;;;;;;5009612;28;20686;-58
2021/08/16 10:41:42;;;;;;;4.97;3.83;;;20.70;96.30;;;;;;5001422;28;20204;-59
2021/08/16 10:44:18;;;;;;;6.30;3.90;;;20.70;96.10;;;;;;5004334;28;20838;-58
2021/08/16 10:46:59;;;;;;;7.43;3.47;;;20.50;96.30;;;;;;5003664;28;20550;-59
2021/08/16 10:49:33;;;;;;;5.00;3.73;;;20.40;96.40;;;;;;4998438;28;20454;-58
2021/08/16 10:51:59;;;;;;;7.40;3.67;;;20.30;97.50;;;;;;5002188;28;20531;-58
2021/08/16 10:54:30;;;;;;;4.70;3.40;;;20.30;98.40;;;;;;5003217;28;20522;-58
2021/08/16 10:56:58;;;;;;;7.63;3.47;;;20.30;98.70;;;;;;5004090;28;20583;-59
2021/08/16 10:59:25;;;;;;;5.20;3.30;;;20.40;98.80;;;;;;4997890;28;20987;-59
2021/08/16 11:01:52;;;;;;;5.57;3.50;;;20.50;98.20;;;;;;5003695;28;20497;-59
2021/08/16 11:04:37;;;;;;;3.57;3.27;;;20.70;98.70;;;;;;5000179;28;20431;-59
2021/08/16 11:07:03;;;;;;;9.00;3.43;;;20.90;98.80;;;;;;5001973;28;20463;-59
2021/08/16 11:09:31;;;;;;;5.27;3.53;;;21.10;97.50;;;;;;4998920;28;20459;-60
2021/08/16 11:12:06;;;;;;;3.70;2.93;;;21.00;97.00;;;;;;5005110;28;20427;-59
2021/08/16 11:14:34;;;;;;;8.23;3.43;;;20.90;97.10;;;;;;5001533;28;20815;-58
2021/08/16 11:16:59;;;;;;;7.47;3.60;;;20.90;97.70;;;;;;5002659;28;20779;-59
2021/08/16 11:19:26;;;;;;;3.87;3.20;;;20.80;98.20;;;;;;5005082;28;20458;-60
2021/08/16 11:22:11;;;;;;;3.90;2.50;;;20.80;96.80;;;;;;5001069;28;20187;-58
2021/08/16 11:24:39;;;;;;;6.23;2.90;;;20.70;96.70;;;;;;4992611;28;20949;-59
2021/08/16 11:27:06;;;;;;;9.07;3.33;;;20.80;97.10;;;;;;4988891;28;20474;-58
2021/08/16 11:29:32;;;;;;;7.57;3.83;;;21.00;96.80;;;;;;5002962;28;20867;-59
2021/08/16 11:32:04;;;;;;;11.50;3.20;;;21.10;95.20;;;;;;5005562;28;20443;-58
2021/08/16 11:34:32;;;;;;;5.17;3.90;;;21.20;94.80;;;;;;4997506;28;20484;-58
2021/08/16 11:36:59;;;;;;;8.37;3.80;;;21.30;92.80;;;;;;5000656;28;20473;-59
2021/08/16 11:39:30;;;;;;;7.93;3.50;;;21.20;92.60;;;;;;5001069;28;20467;-58
2021/08/16 11:42:01;;;;;;;5.87;3.53;;;21.10;93.90;;;;;;5000459;28;20471;-58
2021/08/16 11:44:29;;;;;;;5.00;3.27;;;21.10;92.30;;;;;;5021065;28;20493;-58
2021/08/16 11:46:58;;;;;;;5.53;4.03;;;21.10;92.90;;;;;;5001649;28;20459;-58
2021/08/16 11:49:25;;;;;;;7.87;3.90;;;21.10;94.10;;;;;;4993152;28;20455;-59
2021/08/16 11:51:52;;;;;;;5.00;3.40;;;21.10;93.20;;;;;;4998032;28;20931;-57
2021/08/16 11:54:32;;;;;;;4.60;3.47;;;21.00;93.50;;;;;;4999940;28;20817;-58
2021/08/16 11:57:03;;;;;;;5.10;3.27;;;20.90;94.20;;;;;;4998901;28;20939;-60
2021/08/16 11:59:29;;;;;;;6.00;3.67;;;21.00;94.80;;;;;;5000617;28;20520;-58
2021/08/16 12:01:58;;;;;;;4.93;3.90;;;21.10;94.50;;;;;;5003005;28;20466;-58
2021/08/16 12:04:27;;;;;;;5.27;3.97;;;21.10;94.70;;;;;;5000971;28;20198;-57
2021/08/16 12:06:54;;;;;;;4.70;3.57;;;21.20;94.80;;;;;;5002182;28;20550;-57
2021/08/16 12:09:30;;;;;;;9.70;4.13;;;21.10;94.00;;;;;;5000949;28;20458;-57
2021/08/16 12:12:01;;;;;;;13.23;4.50;;;21.10;93.70;;;;;;5000444;28;20429;-57
2021/08/16 12:14:32;;;;;;;6.90;4.30;;;20.90;93.20;;;;;;4999886;28;20431;-58
2021/08/16 12:16:58;;;;;;;6.13;4.03;;;20.80;93.80;;;;;;5006097;28;20443;-60
2021/08/16 12:19:25;;;;;;;5.33;3.80;;;20.70;93.90;;;;;;5007835;28;20488;-60
2021/08/16 12:22:10;;;;;;;6.10;4.00;;;20.60;94.00;;;;;;5006309;28;20436;-57
2021/08/16 12:24:38;;;;;;;6.33;3.73;;;20.60;93.50;;;;;;5006885;28;20529;-58
2021/08/16 12:27:11;;;;;;;4.93;3.30;;;20.60;92.40;;;;;;5003498;28;20510;-60
2021/08/16 12:29:43;;;;;;;6.03;3.60;;;20.70;83.70;;;;;;5002822;28;20467;-58
2021/08/16 12:32:19;;;;;;;5.17;3.60;;;20.70;80.40;;;;;;4999919;28;20486;-58
2021/08/16 12:34:46;;;;;;;4.33;3.60;;;20.70;81.50;;;;;;5008767;28;20476;-60
2021/08/16 12:37:23;;;;;;;6.47;4.37;;;20.80;80.60;;;;;;4998930;28;20438;-59
2021/08/16 12:39:49;;;;;;;6.83;3.63;;;20.80;82.40;;;;;;5006559;28;20849;-59
2021/08/16 12:42:16;;;;;;;5.00;3.87;;;20.80;78.30;;;;;;5007800;28;20422;-60
2021/08/16 12:44:52;;;;;;;9.37;4.30;;;20.80;79.20;;;;;;5006537;28;20908;-59
2021/08/16 12:47:32;;;;;;;5.10;3.70;;;20.70;79.60;;;;;;5005224;28;20463;-59
2021/08/16 12:50:02;;;;;;;5.63;4.00;;;20.70;78.30;;;;;;5004024;28;20474;-59
2021/08/16 12:52:29;;;;;;;14.20;3.73;;;20.70;80.50;;;;;;5007576;28;20427;-59
2021/08/16 12:54:55;;;;;;;8.60;3.30;;;20.70;79.70;;;;;;5003661;28;20427;-59
2021/08/16 12:57:20;;;;;;;5.67;3.90;;;20.70;81.10;;;;;;5000317;28;20451;-59
2021/08/16 12:59:47;;;;;;;4.63;3.57;;;20.70;82.60;;;;;;5005829;28;20443;-59
2021/08/16 13:02:19;;;;;;;6.60;3.70;;;20.70;82.10;;;;;;5006123;28;20211;-59
2021/08/16 13:04:45;;;;;;;7.13;3.90;;;20.60;80.70;;;;;;5002675;28;21151;-59
2021/08/16 13:07:10;;;;;;;8.43;3.60;;;20.60;83.30;;;;;;5007263;28;20459;-59
2021/08/16 13:09:36;;;;;;;5.50;3.60;;;20.70;83.00;;;;;;5006840;28;20196;-59
2021/08/16 13:12:02;;;;;;;9.83;3.50;;;20.70;83.50;;;;;;5004291;28;20861;-57
2021/08/16 13:14:28;;;;;;;5.43;3.70;;;20.70;80.70;;;;;;4997797;28;20196;-59